Hammond, LA

12:04 PM CST on February 08, 2016 (GMT -0600)
Adams-Lillie Neighborhood | | Change Station
CLOSE
Current Station
Personal Weather Station
Location: Hammond, LA
Elevation: 66 ft
Nearby Weather Stations
Active Advisory: Wind Advisory

Elev 66 ft 30.51 °N, 90.46 °W | Updated 6 seconds ago

Clear
Clear
58.8 °F
Feels Like 58.8 °F
N
6.0
Wind Variable Wind from NE
Gusts 9.8 mph

Today
High -- | Low -- °F
--% Chance of Precip.
Yesterday
High -- | Low -- °F
Precip. -- in
Pressure 30.07 in
Visibility 10.0 miles
Clouds Clear
Dew Point 19 °F
Humidity 21%
Rainfall 0.00 in
Snow Depth Not available.
6:48 AM 5:43 PM
New Moon, 0% visible
METAR KHDC 081755Z AUTO 30017G29KT 10SM CLR 14/M11 A3007 RMK AO2
Pressure 30.07 in
Visibility 10.0 miles
Clouds Clear
Dew Point 19 °F
Humidity 21%
Rainfall 0.00 in
Snow Depth Not available.
6:48 AM 5:43 PM
New Moon, 0% visible
METAR KHDC 081755Z AUTO 30017G29KT 10SM CLR 14/M11 A3007 RMK AO2

10-Day Weather Forecast

Almanac

Astronomy

Feb. 08, 2016 Rise Set
Actual Time
Civil Twilight
Nautical Twilight
Astronomical Twilight
Moon
Length of Visible Light
Length of Day
Tomorrow will be .
, % of the Moon is Illuminated

Today's Extremes

State Highs State Lows

Community

WunderPhotos

Upload Photos

1,891,475 photos uploaded!

WunderBlog® & News

Nearby

Air Quality

  Air Quality AQ Index Pollutant
Not available.

Snow Depth

Station Depth Elevation

Earthquake Activity

City Distance Mag. Time & Date
Minimum magnitude displayed is 2.5.

Coastal Water Temperatures

Place Temperature

Stations

Nearby Weather Stations

Station Location Temp. Windchill Dew Point Humidity Wind Precip. Elev Updated Type
                   

Watches & Warnings

Wind Advisory
Issued: 10:09 AM CST Feb. 8, 2016 – National Weather Service

... Wind Advisory remains in effect until 6 PM CST this evening...

* winds... near 20 mph with frequent gusts of 30 to 35 mph.

* Duration... 6 to 10 hours.

* Impacts... windy conditions will lead to difficult driving
conditions especially along elevated roadways along with
east/west highways and interstates.

Precautionary/preparedness actions...

A Wind Advisory means that winds of 26 to 39 mph are expected.
Winds this strong can make driving difficult... especially for
high profile vehicles. Use extra caution.